createdAt,value
2018-11-28T00:00:32.633Z,94.40
2018-11-28T00:03:03.250Z,94.30
2018-11-28T00:05:31.953Z,94.30
2018-11-28T00:08:00.716Z,94.10
2018-11-28T00:10:30.045Z,94.10
2018-11-28T00:12:59.447Z,94.30
2018-11-28T00:15:28.020Z,94.40
2018-11-28T00:17:56.790Z,94.60
2018-11-28T00:20:25.438Z,95.00
2018-11-28T00:22:54.267Z,94.60
2018-11-28T00:25:22.912Z,95.00
2018-11-28T00:27:51.714Z,94.90
2018-11-28T00:30:23.507Z,95.30
2018-11-28T00:32:52.110Z,94.40
2018-11-28T00:35:21.840Z,95.20
2018-11-28T00:37:50.621Z,95.70
2018-11-28T00:40:20.568Z,95.40
2018-11-28T00:42:49.248Z,95.20
2018-11-28T00:45:19.334Z,95.40
2018-11-28T00:47:48.015Z,94.10
2018-11-28T00:50:18.652Z,94.70
2018-11-28T00:52:47.466Z,94.90
2018-11-28T00:55:16.952Z,94.90
2018-11-28T00:57:45.665Z,94.10
2018-11-28T01:00:20.656Z,93.90
2018-11-28T01:02:49.726Z,94.60
2018-11-28T01:05:18.470Z,94.60
2018-11-28T01:07:48.291Z,94.10
2018-11-28T01:10:18.851Z,94.00
2018-11-28T01:12:47.764Z,94.20
2018-11-28T01:15:17.310Z,94.10
2018-11-28T01:17:46.036Z,94.20
2018-11-28T01:20:17.832Z,93.80
2018-11-28T01:22:46.391Z,94.10
2018-11-28T01:25:16.924Z,93.70
2018-11-28T01:27:45.558Z,93.90
2018-11-28T01:30:18.714Z,93.40
2018-11-28T01:32:47.482Z,93.30
2018-11-28T01:35:17.207Z,93.10
2018-11-28T01:37:46.062Z,93.30
2018-11-28T01:40:17.619Z,93.30
2018-11-28T01:42:46.376Z,93.40
2018-11-28T01:45:19.019Z,93.60
2018-11-28T01:47:47.713Z,93.70
2018-11-28T01:50:17.966Z,93.20
2018-11-28T01:52:46.813Z,93.30
2018-11-28T01:55:17.848Z,93.30
2018-11-28T01:57:46.691Z,93.40
2018-11-28T02:00:20.150Z,93.20
2018-11-28T02:02:57.885Z,93.30
2018-11-28T02:05:26.777Z,93.60
2018-11-28T02:07:55.572Z,93.70
2018-11-28T02:10:24.208Z,93.50
2018-11-28T02:12:53.396Z,93.80
2018-11-28T02:15:27.199Z,93.90
2018-11-28T02:17:56.593Z,94.20
2018-11-28T02:20:25.166Z,95.00
2018-11-28T02:22:54.100Z,95.30
2018-11-28T02:25:22.749Z,95.20
2018-11-28T02:27:51.309Z,94.60
2018-11-28T02:30:20.586Z,94.10
2018-11-28T02:32:50.098Z,94.40
2018-11-28T02:35:19.393Z,94.70
2018-11-28T02:37:48.688Z,95.10
2018-11-28T02:40:18.979Z,95.40
2018-11-28T02:42:48.470Z,95.60
2018-11-28T02:45:21.546Z,95.50
2018-11-28T02:47:50.876Z,95.80
2018-11-28T02:50:19.528Z,95.70
2018-11-28T02:52:48.330Z,95.30
2018-11-28T02:55:17.636Z,95.10
2018-11-28T02:57:47.424Z,94.60
2018-11-28T03:00:19.215Z,94.60
2018-11-28T03:02:47.919Z,95.00
2018-11-28T03:05:16.580Z,95.20
2018-11-28T03:07:45.271Z,94.90
2018-11-28T03:10:18.302Z,95.80
2018-11-28T03:12:46.977Z,96.00
2018-11-28T03:15:18.535Z,95.70
2018-11-28T03:17:47.152Z,95.80
2018-11-28T03:20:15.902Z,95.60
2018-11-28T03:22:45.476Z,95.70
2018-11-28T03:25:14.284Z,96.10
2018-11-28T03:27:43.115Z,96.20
2018-11-28T03:30:14.170Z,96.30
2018-11-28T03:32:42.717Z,96.90
2018-11-28T03:35:13.643Z,97.00
2018-11-28T03:37:42.489Z,97.60
2018-11-28T03:40:11.284Z,98.30
2018-11-28T03:42:40.133Z,99.00
2018-11-28T03:45:11.337Z,99.40
2018-11-28T03:47:39.915Z,99.70
2018-11-28T03:50:10.419Z,99.90
2018-11-28T03:52:39.719Z,99.90
2018-11-28T03:55:10.775Z,99.90
2018-11-28T03:57:39.598Z,99.90
2018-11-28T04:00:12.659Z,99.90
2018-11-28T04:02:41.372Z,99.90
2018-11-28T04:05:09.993Z,99.90
2018-11-28T04:07:38.552Z,99.90
2018-11-28T04:10:11.954Z,99.90
2018-11-28T04:12:41.047Z,99.90
2018-11-28T04:15:14.386Z,99.90
2018-11-28T04:17:42.972Z,99.90
2018-11-28T04:20:15.607Z,99.90
2018-11-28T04:22:44.325Z,99.90
2018-11-28T04:25:13.647Z,99.90
2018-11-28T04:27:42.315Z,99.90
2018-11-28T04:30:15.084Z,99.90
2018-11-28T04:32:43.744Z,99.40
2018-11-28T04:35:13.156Z,99.60
2018-11-28T04:37:56.530Z,99.20
2018-11-28T04:40:25.278Z,99.30
2018-11-28T04:42:54.010Z,99.60
2018-11-28T04:45:23.513Z,99.90
2018-11-28T04:47:55.091Z,99.90
2018-11-28T04:50:23.770Z,99.90
2018-11-28T04:52:52.716Z,99.90
2018-11-28T04:55:21.480Z,99.90
2018-11-28T04:57:49.997Z,99.80
2018-11-28T05:00:24.567Z,99.80
2018-11-28T05:02:54.322Z,99.80
2018-11-28T05:05:22.929Z,99.90
2018-11-28T05:07:52.219Z,99.40
2018-11-28T05:10:25.507Z,99.30
2018-11-28T05:12:54.657Z,99.40
2018-11-28T05:15:24.366Z,99.30
2018-11-28T05:17:53.793Z,99.50
2018-11-28T05:20:23.413Z,99.10
2018-11-28T05:22:52.239Z,99.50
2018-11-28T05:25:22.703Z,99.20
2018-11-28T05:27:52.187Z,99.50
2018-11-28T05:30:21.863Z,99.10
2018-11-28T05:32:50.485Z,99.00
2018-11-28T05:35:21.191Z,99.00
2018-11-28T05:37:49.730Z,98.60
2018-11-28T05:40:24.092Z,98.30
2018-11-28T05:42:52.872Z,98.50
2018-11-28T05:45:22.065Z,97.90
2018-11-28T05:47:51.204Z,98.10
2018-11-28T05:50:20.745Z,97.60
2018-11-28T05:52:49.490Z,98.00
2018-11-28T05:55:19.249Z,98.10
2018-11-28T05:57:47.927Z,98.30
2018-11-28T06:00:38.526Z,98.40
2018-11-28T06:03:09.291Z,98.50
2018-11-28T06:05:37.914Z,98.40
2018-11-28T06:08:07.364Z,98.30
2018-11-28T06:10:36.270Z,97.90
2018-11-28T06:13:04.945Z,97.90
2018-11-28T06:15:33.776Z,98.30
2018-11-28T06:18:02.364Z,98.40
2018-11-28T06:20:31.017Z,98.10
2018-11-28T06:22:59.686Z,98.20
2018-11-28T06:25:28.389Z,98.20
2018-11-28T06:27:57.101Z,98.50
2018-11-28T06:30:25.595Z,98.70
2018-11-28T06:32:54.427Z,98.80
2018-11-28T06:35:23.067Z,98.50
2018-11-28T06:37:51.607Z,98.60
2018-11-28T06:40:23.947Z,98.60
2018-11-28T06:42:49.283Z,98.80
2018-11-28T06:45:20.244Z,98.50
2018-11-28T06:47:48.871Z,98.50
2018-11-28T06:50:18.704Z,98.20
2018-11-28T06:52:49.375Z,98.40
2018-11-28T06:55:19.086Z,98.50
2018-11-28T06:57:48.334Z,98.40
2018-11-28T07:00:19.935Z,99.20
2018-11-28T07:02:49.415Z,99.00
2018-11-28T07:05:18.093Z,98.90
2018-11-28T07:07:46.617Z,98.80
2018-11-28T07:10:16.265Z,98.80
2018-11-28T07:12:45.003Z,99.00
2018-11-28T07:15:15.685Z,98.90
2018-11-28T07:17:44.493Z,98.90
2018-11-28T07:20:14.112Z,99.30
2018-11-28T07:22:42.623Z,99.20
2018-11-28T07:25:15.015Z,99.20
2018-11-28T07:27:45.345Z,99.30
2018-11-28T07:30:15.484Z,98.80
2018-11-28T07:32:44.039Z,98.70
2018-11-28T07:35:13.499Z,98.40
2018-11-28T07:37:42.069Z,98.10
2018-11-28T07:40:13.131Z,97.80
2018-11-28T07:42:42.930Z,98.00
2018-11-28T07:45:12.315Z,97.80
2018-11-28T07:47:41.120Z,97.90
2018-11-28T07:50:10.451Z,97.90
2018-11-28T07:52:40.115Z,98.20
2018-11-28T07:55:10.457Z,98.20
2018-11-28T07:57:39.397Z,98.30
2018-11-28T08:00:12.753Z,98.10
2018-11-28T08:02:41.915Z,97.80
2018-11-28T08:05:11.324Z,97.80
2018-11-28T08:07:40.459Z,97.10
2018-11-28T08:10:10.707Z,97.10
2018-11-28T08:12:39.777Z,96.20
2018-11-28T08:15:20.005Z,96.80
2018-11-28T08:17:48.789Z,96.70
2018-11-28T08:20:19.739Z,97.10
2018-11-28T08:22:48.574Z,96.90
2018-11-28T08:25:18.907Z,96.20
2018-11-28T08:27:49.882Z,95.80
2018-11-28T08:30:20.733Z,95.90
2018-11-28T08:32:49.498Z,96.00
2018-11-28T08:35:18.213Z,96.20
2018-11-28T08:37:46.944Z,96.10
2018-11-28T08:40:16.879Z,96.60
2018-11-28T08:42:45.474Z,97.00
2018-11-28T08:45:15.454Z,96.50
2018-11-28T08:47:45.582Z,96.20
2018-11-28T08:50:18.959Z,96.20
2018-11-28T08:52:47.711Z,96.00
2018-11-28T08:55:16.837Z,95.20
2018-11-28T08:57:45.724Z,94.40
2018-11-28T09:00:18.293Z,94.00
2018-11-28T09:02:48.145Z,93.80
2018-11-28T09:05:16.885Z,93.10
2018-11-28T09:07:45.776Z,93.30
2018-11-28T09:10:16.545Z,93.50
2018-11-28T09:12:45.993Z,93.00
2018-11-28T09:15:18.971Z,93.10
2018-11-28T09:17:47.791Z,93.10
2018-11-28T09:20:16.637Z,92.70
2018-11-28T09:22:45.763Z,93.60
2018-11-28T09:25:16.301Z,92.80
2018-11-28T09:27:46.062Z,92.70
2018-11-28T09:30:18.725Z,92.20
2018-11-28T09:32:48.697Z,92.80
2018-11-28T09:35:17.630Z,92.70
2018-11-28T09:37:46.359Z,92.20
2018-11-28T09:40:17.289Z,92.40
2018-11-28T09:42:46.381Z,92.80
2018-11-28T09:45:17.122Z,93.00
2018-11-28T09:47:46.042Z,93.00
2018-11-28T09:50:16.853Z,92.50
2018-11-28T09:52:45.608Z,91.20
2018-11-28T09:55:16.697Z,91.30
2018-11-28T09:57:45.748Z,91.60
2018-11-28T10:00:23.159Z,91.20
2018-11-28T10:02:52.806Z,91.20
2018-11-28T10:05:22.790Z,91.40
2018-11-28T10:07:58.304Z,91.10
2018-11-28T10:10:27.117Z,90.10
2018-11-28T10:12:57.584Z,89.80
2018-11-28T10:15:27.952Z,88.90
2018-11-28T10:17:56.741Z,90.40
2018-11-28T10:20:25.473Z,89.30
2018-11-28T10:22:54.302Z,87.90
2018-11-28T10:25:27.400Z,87.40
2018-11-28T10:28:01.548Z,84.90
2018-11-28T10:30:31.985Z,85.70
2018-11-28T10:33:00.604Z,87.30
2018-11-28T10:35:29.565Z,87.10
2018-11-28T10:37:58.235Z,86.60
2018-11-28T10:40:26.926Z,87.70
2018-11-28T10:42:57.565Z,84.20
2018-11-28T10:45:27.309Z,84.70
2018-11-28T10:47:56.273Z,83.90
2018-11-28T10:50:24.926Z,80.50
2018-11-28T10:52:53.754Z,84.30
2018-11-28T10:55:24.232Z,83.70
2018-11-28T10:57:53.115Z,82.40
2018-11-28T11:00:31.082Z,82.50
2018-11-28T11:03:04.905Z,82.40
2018-11-28T11:05:39.049Z,81.80
2018-11-28T11:08:13.086Z,83.00
2018-11-28T11:10:46.945Z,82.20
2018-11-28T11:13:20.861Z,83.50
2018-11-28T11:15:56.101Z,84.20
2018-11-28T11:18:25.256Z,83.70
2018-11-28T11:20:53.931Z,83.50
2018-11-28T11:23:22.640Z,83.30
2018-11-28T11:25:51.615Z,83.10
2018-11-28T11:28:20.578Z,83.60
2018-11-28T11:30:49.392Z,83.10
2018-11-28T11:33:18.093Z,84.20
2018-11-28T11:35:46.726Z,81.30
2018-11-28T11:38:15.312Z,80.40
2018-11-28T11:40:44.001Z,80.40
2018-11-28T11:43:12.687Z,80.30
2018-11-28T11:45:41.284Z,78.90
2018-11-28T11:48:10.015Z,76.80
2018-11-28T11:50:39.042Z,84.10
2018-11-28T11:53:08.215Z,84.40
2018-11-28T11:55:37.146Z,82.70
2018-11-28T11:58:06.339Z,84.00
2018-11-28T12:00:35.538Z,82.40
2018-11-28T12:03:08.561Z,79.10
2018-11-28T12:05:37.222Z,79.20
2018-11-28T12:08:06.756Z,77.70
2018-11-28T12:10:35.470Z,76.90
2018-11-28T12:13:04.360Z,75.70
2018-11-28T12:15:33.085Z,78.40
2018-11-28T12:18:01.697Z,77.20
2018-11-28T12:20:35.643Z,77.60
2018-11-28T12:23:04.395Z,79.50
2018-11-28T12:25:32.977Z,80.10
2018-11-28T12:28:01.589Z,81.20
2018-11-28T12:30:30.309Z,79.20
2018-11-28T12:32:58.862Z,80.90
2018-11-28T12:35:27.519Z,79.00
2018-11-28T12:37:56.393Z,78.40
2018-11-28T12:40:25.052Z,76.80
2018-11-28T12:42:53.812Z,82.10
2018-11-28T12:45:22.440Z,78.10
2018-11-28T12:47:51.097Z,76.00
2018-11-28T12:50:21.655Z,76.10
2018-11-28T12:52:50.938Z,77.60
2018-11-28T12:55:20.256Z,75.50
2018-11-28T13:00:48.361Z,76.20
2018-11-28T13:03:18.249Z,74.60
2018-11-28T13:05:46.929Z,75.80
2018-11-28T13:08:16.501Z,74.60
2018-11-28T13:10:45.152Z,74.80
2018-11-28T13:13:13.906Z,74.70
2018-11-28T13:15:42.628Z,76.10
2018-11-28T13:18:11.681Z,77.00
2018-11-28T13:20:41.603Z,73.30
2018-11-28T13:23:11.560Z,74.10
2018-11-28T13:25:40.197Z,79.20
2018-11-28T13:28:08.932Z,76.10
2018-11-28T13:30:37.947Z,75.80
2018-11-28T13:33:07.328Z,74.40
2018-11-28T13:35:35.997Z,73.60
2018-11-28T13:38:08.992Z,72.50
2018-11-28T13:40:37.721Z,72.90
2018-11-28T13:43:06.614Z,75.70
2018-11-28T13:45:36.638Z,72.80
2018-11-28T13:48:05.448Z,72.60
2018-11-28T13:50:34.214Z,73.80
2018-11-28T13:53:05.359Z,74.30
2018-11-28T13:55:40.160Z,73.50
2018-11-28T13:58:06.757Z,75.10
2018-11-28T14:00:35.519Z,73.70
2018-11-28T14:03:04.131Z,74.60
2018-11-28T14:05:32.749Z,75.00
2018-11-28T14:08:01.473Z,74.80
2018-11-28T14:10:30.306Z,73.70
2018-11-28T14:12:58.882Z,74.50
2018-11-28T14:15:27.604Z,76.50
2018-11-28T14:17:57.651Z,76.40
2018-11-28T14:20:26.621Z,76.40
2018-11-28T14:22:55.271Z,76.80
2018-11-28T14:25:24.061Z,78.10
2018-11-28T14:27:52.574Z,77.80
2018-11-28T14:30:25.316Z,79.10
2018-11-28T14:32:53.821Z,77.60
2018-11-28T14:35:23.257Z,78.20
2018-11-28T14:37:52.018Z,77.70
2018-11-28T14:40:22.220Z,78.70
2018-11-28T14:42:53.776Z,78.90
2018-11-28T14:45:22.466Z,80.20
2018-11-28T14:47:51.599Z,80.30
2018-11-28T14:50:24.442Z,85.00
2018-11-28T14:52:54.134Z,88.90
2018-11-28T14:55:30.896Z,90.30
2018-11-28T14:57:59.679Z,91.20
2018-11-28T15:00:29.342Z,91.90
2018-11-28T15:03:07.840Z,92.10
2018-11-28T15:05:45.188Z,92.50
2018-11-28T15:08:16.087Z,92.20
2018-11-28T15:11:16.755Z,92.70
2018-11-28T15:13:45.387Z,92.80
2018-11-28T15:16:14.200Z,92.90
2018-11-28T15:18:43.505Z,93.30
2018-11-28T15:21:12.411Z,93.10
2018-11-28T15:23:41.403Z,92.70
2018-11-28T15:26:10.255Z,92.70
2018-11-28T15:28:38.995Z,92.70
2018-11-28T15:31:08.053Z,92.10
2018-11-28T15:33:36.662Z,92.00
2018-11-28T15:36:05.496Z,91.80
2018-11-28T15:38:35.092Z,92.40
2018-11-28T15:41:03.762Z,92.70
2018-11-28T15:43:32.554Z,92.80
2018-11-28T15:46:01.434Z,92.50
2018-11-28T15:48:30.220Z,92.70
2018-11-28T15:50:59.246Z,93.10
2018-11-28T15:53:28.093Z,93.20
2018-11-28T15:55:56.754Z,93.20
2018-11-28T15:58:25.507Z,93.00
2018-11-28T16:00:54.335Z,94.00
2018-11-28T16:03:23.019Z,93.60
2018-11-28T16:05:51.938Z,94.20
2018-11-28T16:08:21.163Z,94.20
2018-11-28T16:10:49.979Z,94.50
2018-11-28T16:13:19.390Z,94.90
2018-11-28T16:15:57.919Z,94.50
2018-11-28T16:18:26.515Z,95.10
2018-11-28T16:20:55.145Z,94.90
2018-11-28T16:23:23.785Z,94.60
2018-11-28T16:25:52.795Z,94.80
2018-11-28T16:28:21.376Z,94.60
2018-11-28T16:30:50.123Z,94.90
2018-11-28T16:33:18.653Z,94.70
2018-11-28T16:35:47.204Z,94.60
2018-11-28T16:38:15.926Z,94.30
2018-11-28T16:40:44.687Z,94.60
2018-11-28T16:43:13.324Z,94.60
2018-11-28T16:45:42.986Z,95.10
2018-11-28T16:48:11.700Z,95.00
2018-11-28T16:50:40.541Z,94.60
2018-11-28T16:53:09.097Z,94.80
2018-11-28T16:55:37.812Z,94.70
2018-11-28T16:58:07.416Z,94.50
2018-11-28T17:00:37.857Z,94.60
2018-11-28T17:03:06.458Z,94.30
2018-11-28T17:05:35.019Z,94.40
2018-11-28T17:08:03.650Z,94.00
2018-11-28T17:10:32.311Z,94.20
2018-11-28T17:14:03.810Z,93.60
2018-11-28T17:16:32.455Z,93.50
2018-11-28T17:19:01.299Z,92.90
2018-11-28T17:21:30.589Z,92.90
2018-11-28T17:23:58.512Z,92.60
2018-11-28T17:26:27.153Z,92.50
2018-11-28T17:28:55.830Z,92.80
2018-11-28T17:31:24.450Z,92.60
2018-11-28T17:33:53.010Z,92.80
2018-11-28T17:36:21.630Z,93.00
2018-11-28T17:38:50.218Z,92.50
2018-11-28T17:41:18.897Z,93.00
2018-11-28T17:43:48.135Z,92.50
2018-11-28T17:46:16.820Z,92.90
2018-11-28T17:48:47.224Z,93.30
2018-11-28T17:51:15.891Z,93.00
2018-11-28T17:53:44.491Z,92.80
2018-11-28T17:56:13.769Z,93.00
2018-11-28T17:58:41.829Z,93.40
2018-11-28T18:01:10.597Z,93.90
2018-11-28T18:03:39.342Z,93.60
2018-11-28T18:06:08.099Z,93.70
2018-11-28T18:08:37.010Z,93.50
2018-11-28T18:11:11.322Z,93.40
2018-11-28T18:13:40.339Z,93.20
2018-11-28T18:16:09.108Z,93.10
2018-11-28T18:18:37.845Z,92.90
2018-11-28T18:21:07.656Z,93.20
2018-11-28T18:23:36.395Z,93.00
2018-11-28T18:26:08.845Z,93.30
2018-11-28T18:28:37.659Z,93.20
2018-11-28T18:31:07.194Z,93.30
2018-11-28T18:33:36.194Z,94.70
2018-11-28T18:36:05.397Z,93.90
2018-11-28T18:38:34.313Z,93.50
2018-11-28T18:41:03.177Z,93.20
2018-11-28T18:43:31.905Z,92.60
2018-11-28T18:46:00.795Z,92.70
2018-11-28T18:48:29.155Z,92.60
2018-11-28T18:50:57.815Z,92.10
2018-11-28T18:53:26.397Z,92.00
2018-11-28T18:55:55.118Z,91.90
2018-11-28T18:58:23.693Z,92.30
2018-11-28T19:00:52.480Z,92.40
2018-11-28T19:03:22.091Z,91.90
2018-11-28T19:05:50.583Z,91.50
2018-11-28T19:08:19.262Z,91.50
2018-11-28T19:10:48.078Z,91.70
2018-11-28T19:13:16.616Z,91.90
2018-11-28T19:15:45.375Z,91.90
2018-11-28T19:18:14.074Z,91.70
2018-11-28T19:20:42.873Z,92.10
2018-11-28T19:23:11.531Z,92.40
2018-11-28T19:25:40.165Z,92.50
2018-11-28T19:28:08.909Z,92.40
2018-11-28T19:30:38.753Z,92.10
2018-11-28T19:33:12.538Z,92.20
2018-11-28T19:35:41.126Z,92.80
2018-11-28T19:38:11.258Z,92.70
2018-11-28T19:40:58.522Z,92.20
2018-11-28T19:43:27.304Z,92.40
2018-11-28T19:45:55.849Z,92.20
2018-11-28T19:48:24.637Z,92.40
2018-11-28T19:50:54.044Z,92.60
2018-11-28T19:53:24.651Z,92.60
2018-11-28T19:55:54.300Z,92.40
2018-11-28T19:58:24.086Z,92.50
2018-11-28T20:00:52.960Z,92.70
2018-11-28T20:03:22.293Z,92.90
2018-11-28T20:05:51.167Z,93.00
2018-11-28T20:08:19.884Z,92.80
2018-11-28T20:10:48.679Z,93.00
2018-11-28T20:13:17.397Z,92.50
2018-11-28T20:15:48.034Z,92.40
2018-11-28T20:18:17.003Z,92.70
2018-11-28T20:20:47.347Z,92.60
2018-11-28T20:23:16.040Z,92.90
2018-11-28T20:25:45.074Z,93.00
2018-11-28T20:28:14.596Z,92.70
2018-11-28T20:30:44.409Z,92.50
2018-11-28T20:33:14.335Z,92.60
2018-11-28T20:35:44.104Z,92.40
2018-11-28T20:38:31.026Z,92.70
2018-11-28T20:40:59.696Z,93.00
2018-11-28T20:43:28.385Z,92.50
2018-11-28T20:45:56.903Z,92.60
2018-11-28T20:48:25.684Z,92.40
2018-11-28T20:50:54.523Z,92.40
2018-11-28T20:53:23.338Z,92.70
2018-11-28T20:55:51.894Z,92.60
2018-11-28T20:58:20.726Z,92.40
2018-11-28T21:00:49.636Z,92.20
2018-11-28T21:03:18.231Z,92.30
2018-11-28T21:05:47.603Z,92.30
2018-11-28T21:08:16.219Z,92.70
2018-11-28T21:10:44.861Z,92.30
2018-11-28T21:13:13.931Z,92.00
2018-11-28T21:15:43.710Z,92.10
2018-11-28T21:18:12.368Z,92.50
2018-11-28T21:20:42.390Z,92.40
2018-11-28T21:23:13.630Z,92.20
2018-11-28T21:25:43.235Z,91.90
2018-11-28T21:28:11.930Z,91.50
2018-11-28T21:30:40.705Z,91.80
2018-11-28T21:33:10.329Z,92.20
2018-11-28T21:35:40.539Z,92.50
2018-11-28T21:38:09.522Z,92.60
2018-11-28T21:40:38.301Z,92.50
2018-11-28T21:43:07.041Z,92.20
2018-11-28T21:45:35.645Z,92.20
2018-11-28T21:48:04.396Z,92.50
2018-11-28T21:50:33.140Z,92.70
2018-11-28T21:53:01.806Z,92.80
2018-11-28T21:55:31.150Z,92.90
2018-11-28T21:57:59.998Z,92.80
2018-11-28T22:00:28.649Z,92.60
2018-11-28T22:02:57.785Z,93.10
2018-11-28T22:05:26.782Z,93.00
2018-11-28T22:07:55.337Z,93.20
2018-11-28T22:10:24.924Z,93.40
2018-11-28T22:12:54.834Z,93.50
2018-11-28T22:15:23.815Z,93.90
2018-11-28T22:17:54.286Z,93.80
2018-11-28T22:20:23.417Z,94.10
2018-11-28T22:22:51.974Z,94.10
2018-11-28T22:25:22.508Z,94.10
2018-11-28T22:27:51.174Z,94.30
2018-11-28T22:30:20.918Z,94.50
2018-11-28T22:32:49.535Z,94.40
2018-11-28T22:35:18.076Z,93.80
2018-11-28T22:37:46.774Z,94.00
2018-11-28T22:40:19.607Z,93.90
2018-11-28T22:42:48.308Z,93.70
2018-11-28T22:45:20.891Z,93.80
2018-11-28T22:47:49.495Z,93.90
2018-11-28T22:50:18.048Z,94.00
2018-11-28T22:52:46.677Z,93.70
2018-11-28T22:55:17.564Z,93.90
2018-11-28T22:57:46.418Z,93.90
2018-11-28T23:00:16.768Z,93.60
2018-11-28T23:02:52.218Z,93.80
2018-11-28T23:05:22.085Z,93.70
2018-11-28T23:07:50.835Z,93.50
2018-11-28T23:10:19.617Z,93.10
2018-11-28T23:12:48.458Z,93.50
2018-11-28T23:15:17.403Z,93.30
2018-11-28T23:17:46.088Z,93.60
2018-11-28T23:20:14.827Z,93.30
2018-11-28T23:22:43.513Z,93.50
2018-11-28T23:25:12.617Z,93.50
2018-11-28T23:27:41.505Z,93.80
2018-11-28T23:30:13.439Z,93.80
2018-11-28T23:32:42.253Z,94.20
2018-11-28T23:35:11.735Z,94.20
2018-11-28T23:37:41.303Z,94.00
2018-11-28T23:40:11.593Z,94.60
2018-11-28T23:42:40.325Z,95.20
2018-11-28T23:45:10.508Z,95.50
2018-11-28T23:47:39.199Z,95.70
2018-11-28T23:50:11.933Z,96.00
2018-11-28T23:52:40.830Z,96.70
2018-11-28T23:55:18.510Z,96.40
2018-11-28T23:57:47.308Z,96.50
